createdAt,value
2023-05-21T00:01:48.556Z,62.44
2023-05-21T00:04:15.071Z,62.05
2023-05-21T00:06:41.562Z,61.34
2023-05-21T00:09:08.086Z,60.80
2023-05-21T00:11:34.537Z,60.39
2023-05-21T00:14:00.940Z,60.97
2023-05-21T00:16:27.489Z,61.03
2023-05-21T00:18:54.300Z,60.80
2023-05-21T00:21:20.872Z,61.06
2023-05-21T00:23:47.326Z,62.61
2023-05-21T00:26:13.742Z,63.00
2023-05-21T00:28:40.128Z,63.97
2023-05-21T00:31:06.545Z,65.92
2023-05-21T00:33:32.987Z,65.53
2023-05-21T00:35:59.659Z,64.87
2023-05-21T00:38:26.150Z,64.70
2023-05-21T00:40:52.540Z,63.78
2023-05-21T00:43:18.957Z,63.38
2023-05-21T00:45:45.393Z,63.39
2023-05-21T00:48:11.856Z,63.35
2023-05-21T00:50:38.366Z,63.38
2023-05-21T00:53:04.762Z,63.38
2023-05-21T00:55:31.235Z,63.36
2023-05-21T00:57:57.680Z,63.20
2023-05-21T01:00:24.166Z,63.11
2023-05-21T01:02:50.717Z,63.23
2023-05-21T01:05:17.252Z,62.68
2023-05-21T01:07:43.719Z,62.53
2023-05-21T01:10:10.204Z,63.13
2023-05-21T01:12:36.696Z,62.71
2023-05-21T01:15:03.200Z,62.59
2023-05-21T01:17:29.627Z,62.70
2023-05-21T01:19:56.052Z,62.31
2023-05-21T01:22:22.460Z,62.37
2023-05-21T01:24:48.855Z,62.73
2023-05-21T01:27:15.281Z,62.33
2023-05-21T01:29:41.704Z,62.51
2023-05-21T01:32:08.174Z,62.57
2023-05-21T01:34:34.626Z,63.28
2023-05-21T01:37:01.018Z,63.11
2023-05-21T01:39:27.427Z,63.19
2023-05-21T01:41:53.827Z,62.20
2023-05-21T01:44:20.256Z,61.29
2023-05-21T01:46:46.771Z,61.79
2023-05-21T01:49:13.323Z,62.24
2023-05-21T01:51:39.734Z,62.08
2023-05-21T01:54:06.125Z,61.69
2023-05-21T01:56:32.583Z,61.21
2023-05-21T01:58:58.991Z,61.14
2023-05-21T02:01:25.521Z,60.79
2023-05-21T02:03:52.109Z,61.15
2023-05-21T02:06:18.575Z,61.13
2023-05-21T02:08:44.986Z,60.88
2023-05-21T02:11:11.419Z,61.16
2023-05-21T02:13:37.818Z,61.73
2023-05-21T02:16:04.300Z,61.44
2023-05-21T02:18:30.750Z,61.21
2023-05-21T02:20:57.153Z,61.29
2023-05-21T02:23:23.565Z,61.09
2023-05-21T02:25:49.993Z,61.59
2023-05-21T02:28:16.349Z,61.33
2023-05-21T02:30:42.808Z,61.24
2023-05-21T02:33:09.496Z,61.08
2023-05-21T02:35:36.100Z,61.16
2023-05-21T02:38:02.626Z,61.12
2023-05-21T02:40:29.033Z,60.97
2023-05-21T02:42:55.460Z,61.28
2023-05-21T02:45:21.893Z,61.02
2023-05-21T02:47:48.359Z,61.10
2023-05-21T02:50:14.815Z,60.95
2023-05-21T02:52:41.257Z,60.85
2023-05-21T02:55:07.692Z,60.63
2023-05-21T02:57:34.133Z,61.63
2023-05-21T03:00:00.601Z,61.62
2023-05-21T03:02:27.054Z,61.15
2023-05-21T03:04:53.504Z,61.61
2023-05-21T03:07:20.159Z,61.25
2023-05-21T03:09:46.732Z,63.62
2023-05-21T03:12:13.194Z,63.84
2023-05-21T03:14:39.604Z,63.83
2023-05-21T03:17:06.330Z,64.25
2023-05-21T03:19:33.047Z,63.75
2023-05-21T03:21:59.532Z,64.19
2023-05-21T03:24:26.030Z,64.10
2023-05-21T03:26:52.548Z,63.09
2023-05-21T03:29:18.926Z,63.73
2023-05-21T03:31:45.388Z,63.62
2023-05-21T03:34:11.889Z,63.50
2023-05-21T03:36:38.275Z,62.99
2023-05-21T03:39:04.761Z,63.01
2023-05-21T03:41:31.230Z,62.95
2023-05-21T03:43:57.644Z,62.36
2023-05-21T03:46:24.204Z,62.56
2023-05-21T03:48:50.686Z,62.43
2023-05-21T03:51:17.150Z,62.56
2023-05-21T03:53:43.633Z,63.26
2023-05-21T03:56:10.107Z,63.01
2023-05-21T03:58:36.532Z,62.83
2023-05-21T04:01:02.977Z,62.88
2023-05-21T04:03:29.596Z,63.41
2023-05-21T04:05:56.229Z,63.23
2023-05-21T04:08:22.699Z,63.14
2023-05-21T04:10:49.141Z,63.12
2023-05-21T04:13:15.597Z,62.89
2023-05-21T04:15:42.002Z,63.39
2023-05-21T04:18:08.477Z,62.85
2023-05-21T04:20:34.950Z,63.69
2023-05-21T04:23:01.352Z,63.68
2023-05-21T04:25:27.748Z,63.47
2023-05-21T04:27:54.158Z,63.61
2023-05-21T04:30:20.554Z,63.56
2023-05-21T04:32:47.007Z,63.46
2023-05-21T04:35:13.450Z,63.90
2023-05-21T04:37:39.845Z,63.48
2023-05-21T04:40:06.213Z,64.46
2023-05-21T04:42:32.622Z,64.64
2023-05-21T04:44:59.014Z,64.24
2023-05-21T04:47:25.485Z,65.06
2023-05-21T04:49:51.932Z,64.86
2023-05-21T04:52:18.359Z,64.40
2023-05-21T04:54:44.756Z,64.82
2023-05-21T04:57:11.213Z,65.77
2023-05-21T04:59:37.727Z,65.87
2023-05-21T05:02:04.117Z,65.25
2023-05-21T05:04:30.574Z,64.90
2023-05-21T05:06:56.970Z,65.19
2023-05-21T05:09:23.383Z,65.08
2023-05-21T05:11:49.785Z,65.14
2023-05-21T05:14:16.176Z,65.20
2023-05-21T05:16:42.593Z,65.23
2023-05-21T05:19:09.099Z,65.40
2023-05-21T05:21:35.607Z,65.07
2023-05-21T05:24:02.015Z,64.43
2023-05-21T05:26:28.510Z,64.53
2023-05-21T05:28:54.924Z,64.60
2023-05-21T05:31:21.374Z,64.79
2023-05-21T05:33:47.839Z,65.57
2023-05-21T05:36:14.258Z,65.07
2023-05-21T05:38:40.648Z,65.70
2023-05-21T05:41:07.095Z,65.43
2023-05-21T05:43:33.577Z,65.25
2023-05-21T05:46:00.009Z,65.22
2023-05-21T05:48:26.543Z,65.55
2023-05-21T05:50:52.946Z,65.39
2023-05-21T05:53:19.384Z,65.88
2023-05-21T05:55:45.788Z,66.22
2023-05-21T05:58:12.255Z,66.50
2023-05-21T06:00:38.645Z,66.64
2023-05-21T06:03:05.298Z,66.97
2023-05-21T06:05:31.942Z,66.77
2023-05-21T06:07:58.427Z,66.41
2023-05-21T06:10:24.810Z,66.52
2023-05-21T06:12:51.230Z,65.77
2023-05-21T06:15:17.625Z,65.64
2023-05-21T06:17:44.048Z,65.44
2023-05-21T06:20:10.543Z,65.85
2023-05-21T06:22:36.935Z,65.24
2023-05-21T06:25:03.361Z,64.83
2023-05-21T06:27:29.780Z,65.38
2023-05-21T06:29:56.228Z,64.63
2023-05-21T06:32:22.802Z,63.92
2023-05-21T06:34:49.294Z,64.16
2023-05-21T06:37:15.765Z,65.28
2023-05-21T06:39:42.217Z,64.99
2023-05-21T06:42:08.700Z,65.31
2023-05-21T06:44:35.120Z,64.84
2023-05-21T06:47:01.636Z,64.93
2023-05-21T06:49:28.031Z,65.04
2023-05-21T06:51:54.436Z,64.12
2023-05-21T06:54:20.826Z,63.84
2023-05-21T06:56:47.236Z,64.45
2023-05-21T06:59:13.668Z,64.18
2023-05-21T07:01:40.096Z,64.25
2023-05-21T07:04:06.570Z,64.89
2023-05-21T07:06:33.004Z,63.95
2023-05-21T07:08:59.443Z,63.38
2023-05-21T07:11:25.834Z,65.11
2023-05-21T07:13:52.251Z,66.12
2023-05-21T07:16:18.618Z,66.93
2023-05-21T07:18:45.052Z,66.79
2023-05-21T07:21:11.538Z,66.45
2023-05-21T07:23:37.912Z,65.56
2023-05-21T07:26:04.292Z,65.42
2023-05-21T07:28:30.711Z,65.49
2023-05-21T07:30:57.131Z,65.15
2023-05-21T07:33:23.506Z,64.93
2023-05-21T07:35:49.957Z,64.28
2023-05-21T07:38:16.389Z,64.05
2023-05-21T07:40:42.784Z,63.90
2023-05-21T07:43:09.162Z,63.74
2023-05-21T07:45:35.739Z,64.41
2023-05-21T07:48:02.497Z,63.80
2023-05-21T07:50:29.024Z,63.91
2023-05-21T07:52:55.467Z,64.27
2023-05-21T07:55:21.916Z,64.42
2023-05-21T07:57:48.355Z,65.25
2023-05-21T08:00:14.750Z,66.07
2023-05-21T08:02:41.298Z,66.62
2023-05-21T08:05:07.982Z,66.29
2023-05-21T08:07:34.483Z,67.00
2023-05-21T08:10:02.868Z,67.32
2023-05-21T08:12:29.545Z,66.81
2023-05-21T08:15:10.355Z,63.13
2023-05-21T08:17:36.819Z,65.35
2023-05-21T08:20:03.266Z,65.50
2023-05-21T08:22:29.733Z,63.96
2023-05-21T08:24:56.210Z,64.94
2023-05-21T08:27:22.666Z,65.29
2023-05-21T08:29:49.141Z,64.97
2023-05-21T08:32:15.654Z,63.78
2023-05-21T08:34:42.144Z,62.96
2023-05-21T08:37:08.555Z,61.82
2023-05-21T08:39:35.095Z,62.24
2023-05-21T08:42:01.635Z,62.36
2023-05-21T08:44:28.038Z,61.82
2023-05-21T08:46:54.455Z,61.62
2023-05-21T08:49:20.850Z,63.34
2023-05-21T08:51:47.279Z,63.16
2023-05-21T08:54:13.730Z,64.05
2023-05-21T08:56:40.145Z,64.13
2023-05-21T08:59:06.615Z,63.84
2023-05-21T09:01:33.048Z,64.29
2023-05-21T09:04:08.213Z,63.44
2023-05-21T09:06:39.024Z,63.13
2023-05-21T09:09:05.418Z,64.45
2023-05-21T09:11:31.881Z,62.73
2023-05-21T09:13:58.333Z,64.00
2023-05-21T09:16:24.765Z,63.30
2023-05-21T09:18:51.339Z,62.84
2023-05-21T09:21:17.732Z,63.06
2023-05-21T09:23:44.173Z,64.13
2023-05-21T09:26:10.896Z,64.68
2023-05-21T09:28:37.308Z,65.13
2023-05-21T09:31:03.784Z,64.66
2023-05-21T09:33:30.253Z,64.37
2023-05-21T09:35:56.685Z,64.19
2023-05-21T09:38:23.148Z,64.36
2023-05-21T09:40:49.579Z,62.82
2023-05-21T09:43:16.085Z,65.89
2023-05-21T09:45:42.659Z,66.08
2023-05-21T09:48:09.104Z,66.10
2023-05-21T09:50:35.705Z,66.96
2023-05-21T09:53:04.283Z,66.59
2023-05-21T09:55:30.766Z,67.37
2023-05-21T09:57:57.233Z,67.38
2023-05-21T10:00:23.730Z,66.81
2023-05-21T10:02:52.201Z,67.10
2023-05-21T10:05:18.625Z,66.22
2023-05-21T10:07:45.083Z,65.89
2023-05-21T10:10:11.557Z,65.18
2023-05-21T10:12:38.134Z,65.05
2023-05-21T10:15:04.662Z,66.29
2023-05-21T10:17:31.254Z,66.31
2023-05-21T10:19:57.778Z,65.77
2023-05-21T10:22:24.313Z,65.84
2023-05-21T10:24:50.770Z,65.35
2023-05-21T10:27:17.195Z,64.46
2023-05-21T10:29:43.660Z,63.04
2023-05-21T10:32:10.126Z,62.47
2023-05-21T10:34:36.567Z,61.52
2023-05-21T10:37:03.001Z,61.13
2023-05-21T10:39:29.537Z,60.98
2023-05-21T10:41:58.427Z,61.10
2023-05-21T10:44:25.631Z,60.42
2023-05-21T10:46:52.081Z,60.31
2023-05-21T10:49:18.609Z,59.90
2023-05-21T10:51:45.002Z,60.19
2023-05-21T10:54:11.423Z,59.95
2023-05-21T10:56:37.836Z,61.10
2023-05-21T10:59:04.291Z,60.98
2023-05-21T11:01:30.790Z,60.32
2023-05-21T11:03:57.303Z,59.73
2023-05-21T11:06:23.861Z,60.49
2023-05-21T11:08:51.011Z,60.16
2023-05-21T11:11:18.609Z,59.41
2023-05-21T11:13:45.045Z,57.68
2023-05-21T11:16:14.156Z,57.15
2023-05-21T11:18:40.587Z,56.80
2023-05-21T11:21:06.994Z,56.18
2023-05-21T11:23:33.424Z,55.54
2023-05-21T11:25:59.824Z,54.49
2023-05-21T11:28:26.353Z,56.39
2023-05-21T11:30:52.766Z,56.05
2023-05-21T11:33:19.202Z,56.30
2023-05-21T11:35:45.662Z,57.03
2023-05-21T11:38:12.059Z,56.58
2023-05-21T11:40:38.607Z,57.46
2023-05-21T11:43:05.099Z,57.22
2023-05-21T11:45:31.547Z,57.27
2023-05-21T11:47:58.058Z,57.79
2023-05-21T11:50:24.571Z,58.13
2023-05-21T11:52:51.113Z,56.85
2023-05-21T11:55:19.114Z,55.95
2023-05-21T11:57:45.499Z,56.97
2023-05-21T12:00:12.225Z,57.28
2023-05-21T12:02:38.780Z,56.84
2023-05-21T12:05:05.266Z,55.48
2023-05-21T12:07:31.750Z,54.28
2023-05-21T12:09:58.149Z,53.56
2023-05-21T12:12:24.618Z,54.09
2023-05-21T12:14:51.034Z,54.78
2023-05-21T12:17:17.418Z,56.33
2023-05-21T12:19:43.818Z,56.08
2023-05-21T12:22:10.236Z,56.13
2023-05-21T12:24:36.652Z,52.87
2023-05-21T12:27:03.112Z,53.63
2023-05-21T12:29:29.499Z,53.36
2023-05-21T12:31:55.966Z,53.47
2023-05-21T12:34:22.403Z,53.05
2023-05-21T12:36:48.791Z,52.62
2023-05-21T12:39:15.314Z,52.92
2023-05-21T12:41:41.804Z,53.07
2023-05-21T12:44:08.291Z,52.24
2023-05-21T12:46:34.702Z,52.03
2023-05-21T12:49:01.170Z,51.98
2023-05-21T12:51:27.582Z,52.43
2023-05-21T12:53:54.123Z,52.63
2023-05-21T12:56:20.518Z,52.74
2023-05-21T12:58:46.930Z,52.76
2023-05-21T13:01:13.423Z,52.66
2023-05-21T13:03:39.893Z,52.37
2023-05-21T13:06:06.346Z,53.32
2023-05-21T13:08:32.766Z,51.59
2023-05-21T13:10:59.169Z,52.09
2023-05-21T13:13:25.560Z,51.40
2023-05-21T13:15:52.087Z,51.29
2023-05-21T13:18:18.599Z,52.81
2023-05-21T13:20:45.113Z,52.71
2023-05-21T13:23:11.962Z,51.12
2023-05-21T13:25:38.456Z,49.69
2023-05-21T13:28:04.855Z,49.18
2023-05-21T13:30:31.301Z,47.79
2023-05-21T13:32:57.762Z,47.91
2023-05-21T13:35:24.188Z,50.35
2023-05-21T13:37:50.578Z,51.76
2023-05-21T13:40:17.076Z,49.85
2023-05-21T13:42:43.522Z,51.89
2023-05-21T13:45:09.992Z,49.30
2023-05-21T13:47:39.168Z,49.07
2023-05-21T13:50:06.627Z,49.14
2023-05-21T13:52:33.108Z,51.00
2023-05-21T13:54:59.519Z,50.63
2023-05-21T13:57:28.948Z,51.30
2023-05-21T13:59:55.441Z,51.37
2023-05-21T14:02:21.978Z,51.46
2023-05-21T14:04:48.493Z,52.10
2023-05-21T14:07:14.954Z,52.92
2023-05-21T14:09:41.478Z,50.69
2023-05-21T14:12:07.911Z,52.25
2023-05-21T14:14:34.353Z,52.11
2023-05-21T14:17:00.866Z,52.03
2023-05-21T14:19:27.429Z,50.24
2023-05-21T14:21:53.995Z,50.89
2023-05-21T14:24:20.439Z,50.46
2023-05-21T14:26:46.861Z,50.76
2023-05-21T14:29:13.278Z,49.75
2023-05-21T14:31:39.701Z,49.22
2023-05-21T14:34:06.127Z,49.12
2023-05-21T14:36:32.567Z,48.96
2023-05-21T14:38:58.995Z,48.36
2023-05-21T14:41:25.392Z,48.58
2023-05-21T14:43:51.951Z,48.32
2023-05-21T14:46:18.411Z,47.94
2023-05-21T14:48:44.835Z,48.65
2023-05-21T14:51:11.261Z,48.55
2023-05-21T14:53:37.710Z,48.47
2023-05-21T14:56:04.081Z,48.47
2023-05-21T14:58:30.550Z,48.06
2023-05-21T15:00:57.093Z,47.98
2023-05-21T15:03:23.595Z,48.14
2023-05-21T15:05:50.048Z,46.90
2023-05-21T15:08:16.466Z,46.23
2023-05-21T15:10:42.959Z,46.68
2023-05-21T15:13:09.340Z,46.54
2023-05-21T15:15:36.143Z,45.91
2023-05-21T15:18:02.877Z,46.82
2023-05-21T15:20:29.321Z,46.98
2023-05-21T15:23:05.098Z,47.06
2023-05-21T15:25:42.147Z,45.75
2023-05-21T15:28:08.555Z,45.54
2023-05-21T15:30:34.928Z,44.41
2023-05-21T15:33:01.357Z,45.52
2023-05-21T15:35:27.926Z,45.46
2023-05-21T15:37:54.470Z,44.97
2023-05-21T15:40:20.917Z,44.46
2023-05-21T15:42:47.326Z,45.01
2023-05-21T15:45:13.727Z,45.35
2023-05-21T15:47:42.579Z,44.05
2023-05-21T15:50:09.421Z,43.68
2023-05-21T15:52:35.895Z,42.90
2023-05-21T15:55:02.296Z,42.17
2023-05-21T15:57:28.769Z,39.45
2023-05-21T15:59:55.180Z,35.93
2023-05-21T16:02:21.674Z,33.31
2023-05-21T16:04:48.117Z,32.24
2023-05-21T16:07:14.541Z,31.11
2023-05-21T16:09:40.969Z,29.76
2023-05-21T16:12:07.359Z,29.94
2023-05-21T16:14:33.733Z,30.98
2023-05-21T16:17:00.262Z,33.28
2023-05-21T16:19:26.762Z,34.52
2023-05-21T16:21:53.193Z,36.26
2023-05-21T16:24:19.631Z,38.15
2023-05-21T16:26:46.091Z,39.68
2023-05-21T16:29:12.500Z,38.33
2023-05-21T16:31:38.974Z,38.92
2023-05-21T16:34:05.423Z,40.61
2023-05-21T16:36:31.835Z,41.34
2023-05-21T16:38:58.383Z,42.46
2023-05-21T16:41:24.802Z,42.11
2023-05-21T16:43:51.230Z,42.81
2023-05-21T16:46:19.020Z,42.40
2023-05-21T16:48:45.540Z,43.57
2023-05-21T16:51:11.972Z,43.70
2023-05-21T16:53:38.445Z,42.75
2023-05-21T16:56:05.032Z,43.91
2023-05-21T16:58:31.400Z,43.94
2023-05-21T17:00:57.782Z,44.28
2023-05-21T17:03:24.325Z,43.71
2023-05-21T17:05:50.915Z,43.40
2023-05-21T17:08:17.422Z,43.51
2023-05-21T17:10:43.855Z,44.04
2023-05-21T17:13:21.471Z,43.98
2023-05-21T17:15:48.933Z,43.97
2023-05-21T17:18:15.419Z,43.91
2023-05-21T17:20:41.775Z,44.01
2023-05-21T17:23:08.184Z,44.34
2023-05-21T17:25:34.891Z,44.21
2023-05-21T17:28:01.619Z,44.52
2023-05-21T17:30:28.048Z,44.27
2023-05-21T17:32:54.658Z,44.52
2023-05-21T17:35:21.098Z,44.47
2023-05-21T17:37:47.469Z,45.15
2023-05-21T17:40:13.843Z,45.99
2023-05-21T17:42:40.294Z,45.66
2023-05-21T17:45:06.656Z,45.90
2023-05-21T17:47:33.217Z,46.42
2023-05-21T17:49:59.693Z,46.13
2023-05-21T17:52:26.112Z,46.53
2023-05-21T17:54:52.600Z,46.76
2023-05-21T17:57:19.017Z,46.54
2023-05-21T17:59:45.401Z,47.85
2023-05-21T18:02:11.864Z,48.53
2023-05-21T18:04:38.489Z,49.04
2023-05-21T18:07:04.917Z,49.26
2023-05-21T18:09:31.367Z,49.71
2023-05-21T18:11:58.394Z,49.80
2023-05-21T18:14:26.239Z,50.27
2023-05-21T18:16:52.726Z,50.75
2023-05-21T18:19:19.212Z,50.84
2023-05-21T18:21:45.892Z,50.90
2023-05-21T18:24:12.408Z,51.16
2023-05-21T18:26:39.017Z,51.66
2023-05-21T18:29:05.506Z,52.06
2023-05-21T18:31:32.047Z,52.47
2023-05-21T18:33:58.584Z,52.72
2023-05-21T18:36:25.056Z,52.67
2023-05-21T18:38:51.487Z,52.58
2023-05-21T18:41:17.990Z,53.09
2023-05-21T18:43:44.388Z,53.13
2023-05-21T18:46:10.951Z,53.21
2023-05-21T18:48:37.463Z,53.27
2023-05-21T18:51:03.894Z,53.61
2023-05-21T18:53:30.319Z,53.67
2023-05-21T18:55:56.752Z,53.54
2023-05-21T18:58:23.149Z,53.45
2023-05-21T19:00:49.552Z,53.51
2023-05-21T19:03:15.914Z,54.26
2023-05-21T19:05:42.504Z,54.50
2023-05-21T19:08:08.950Z,55.11
2023-05-21T19:10:35.735Z,55.23
2023-05-21T19:13:06.134Z,54.82
2023-05-21T19:15:32.826Z,52.21
2023-05-21T19:17:59.337Z,52.60
2023-05-21T19:20:25.796Z,53.11
2023-05-21T19:22:52.202Z,53.54
2023-05-21T19:25:18.596Z,51.93
2023-05-21T19:27:44.979Z,51.75
2023-05-21T19:30:11.402Z,52.94
2023-05-21T19:32:37.904Z,53.94
2023-05-21T19:35:04.537Z,55.25
2023-05-21T19:37:30.966Z,56.41
2023-05-21T19:39:57.331Z,56.07
2023-05-21T19:42:23.724Z,55.78
2023-05-21T19:44:50.168Z,55.31
2023-05-21T19:47:16.579Z,55.15
2023-05-21T19:49:43.030Z,55.87
2023-05-21T19:52:09.437Z,56.01
2023-05-21T19:54:35.968Z,55.98
2023-05-21T19:57:02.410Z,55.93
2023-05-21T19:59:28.876Z,56.05
2023-05-21T20:01:55.313Z,55.94
2023-05-21T20:04:21.910Z,55.77
2023-05-21T20:06:48.483Z,55.20
2023-05-21T20:09:14.954Z,54.37
2023-05-21T20:11:41.371Z,53.68
2023-05-21T20:14:07.807Z,53.87
2023-05-21T20:16:34.281Z,53.95
2023-05-21T20:19:00.767Z,53.95
2023-05-21T20:21:27.273Z,53.94
2023-05-21T20:23:53.659Z,53.94
2023-05-21T20:26:20.041Z,53.75
2023-05-21T20:28:46.468Z,53.69
2023-05-21T20:31:12.903Z,53.77
2023-05-21T20:33:40.156Z,54.05
2023-05-21T20:36:06.556Z,53.84
2023-05-21T20:38:33.014Z,54.75
2023-05-21T20:40:59.443Z,55.11
2023-05-21T20:43:25.890Z,55.65
2023-05-21T20:45:52.394Z,55.34
2023-05-21T20:48:18.824Z,54.96
2023-05-21T20:50:45.260Z,54.61
2023-05-21T20:53:11.663Z,54.56
2023-05-21T20:55:38.050Z,54.21
2023-05-21T20:58:04.426Z,53.62
2023-05-21T21:00:30.923Z,54.62
2023-05-21T21:02:57.442Z,54.23
2023-05-21T21:05:23.930Z,53.92
2023-05-21T21:07:50.680Z,53.84
2023-05-21T21:10:18.207Z,54.02
2023-05-21T21:12:44.632Z,54.63
2023-05-21T21:15:11.032Z,55.09
2023-05-21T21:17:37.411Z,55.22
2023-05-21T21:20:03.840Z,55.09
2023-05-21T21:22:30.280Z,54.99
2023-05-21T21:24:56.680Z,55.33
2023-05-21T21:27:23.062Z,55.42
2023-05-21T21:29:49.442Z,55.59
2023-05-21T21:32:15.838Z,55.47
2023-05-21T21:34:42.239Z,55.56
2023-05-21T21:37:08.621Z,55.37
2023-05-21T21:39:35.095Z,54.58
2023-05-21T21:42:01.481Z,54.12
2023-05-21T21:44:27.891Z,54.65
2023-05-21T21:46:54.301Z,54.79
2023-05-21T21:49:20.699Z,54.54
2023-05-21T21:51:47.056Z,54.24
2023-05-21T21:54:13.435Z,54.09
2023-05-21T21:56:39.792Z,54.34
2023-05-21T21:59:06.169Z,54.35
2023-05-21T22:01:32.668Z,54.27
2023-05-21T22:03:59.148Z,54.16
2023-05-21T22:06:25.561Z,53.94
2023-05-21T22:08:51.989Z,53.95
2023-05-21T22:11:18.386Z,54.00
2023-05-21T22:13:44.771Z,53.95
2023-05-21T22:16:11.129Z,54.34
2023-05-21T22:18:40.947Z,54.21
2023-05-21T22:21:07.498Z,53.52
2023-05-21T22:23:33.890Z,53.08
2023-05-21T22:26:00.301Z,53.32
2023-05-21T22:28:26.691Z,53.91
2023-05-21T22:30:53.107Z,54.18
2023-05-21T22:33:19.616Z,54.62
2023-05-21T22:35:46.009Z,54.91
2023-05-21T22:38:12.382Z,56.06
2023-05-21T22:40:38.960Z,56.94
2023-05-21T22:43:05.550Z,57.38
2023-05-21T22:45:31.928Z,57.50
2023-05-21T22:47:58.385Z,57.51
2023-05-21T22:50:24.778Z,57.60
2023-05-21T22:52:51.172Z,57.18
2023-05-21T22:55:17.565Z,56.64
2023-05-21T22:57:43.976Z,56.30
2023-05-21T23:00:10.369Z,56.35
2023-05-21T23:02:36.828Z,56.04
2023-05-21T23:05:03.313Z,56.76
2023-05-21T23:07:29.863Z,56.75
2023-05-21T23:09:56.246Z,56.93
2023-05-21T23:12:22.622Z,57.14
2023-05-21T23:14:49.015Z,57.09
2023-05-21T23:17:15.421Z,57.08
2023-05-21T23:19:41.853Z,57.31
2023-05-21T23:22:08.249Z,57.30
2023-05-21T23:24:34.612Z,57.47
2023-05-21T23:27:00.989Z,57.48
2023-05-21T23:29:27.644Z,57.54
2023-05-21T23:31:54.108Z,57.28
2023-05-21T23:34:20.523Z,57.04
2023-05-21T23:36:46.916Z,56.93
2023-05-21T23:39:13.341Z,57.31
2023-05-21T23:41:39.719Z,56.67
2023-05-21T23:44:06.192Z,56.31
2023-05-21T23:46:32.598Z,56.39
2023-05-21T23:48:58.972Z,56.74
2023-05-21T23:51:25.337Z,56.76
2023-05-21T23:53:51.753Z,56.80
2023-05-21T23:56:18.130Z,56.88
2023-05-21T23:58:44.533Z,56.83
